createdAt,value
2022-11-19T00:02:08.324Z,100952.16
2022-11-19T00:04:37.234Z,100956.47
2022-11-19T00:07:06.083Z,100944.38
2022-11-19T00:09:34.469Z,100951.44
2022-11-19T00:12:20.111Z,100954.03
2022-11-19T00:14:49.003Z,100959.38
2022-11-19T00:17:19.176Z,100960.28
2022-11-19T00:19:47.647Z,100953.44
2022-11-19T00:22:16.211Z,100954.22
2022-11-19T00:24:44.764Z,100960.38
2022-11-19T00:27:13.686Z,100957.09
2022-11-19T00:29:42.262Z,100964.84
2022-11-19T00:32:12.261Z,100957.16
2022-11-19T00:34:42.470Z,100957.28
2022-11-19T00:37:10.851Z,100957.28
2022-11-19T00:39:39.264Z,100960.84
2022-11-19T00:42:08.144Z,100961.50
2022-11-19T00:44:37.609Z,100973.72
2022-11-19T00:47:06.698Z,100985.84
2022-11-19T00:49:35.412Z,100981.44
2022-11-19T00:52:06.087Z,100988.22
2022-11-19T00:54:34.625Z,100983.00
2022-11-19T00:57:03.362Z,100986.31
2022-11-19T00:59:31.957Z,100994.16
2022-11-19T01:02:00.758Z,100988.81
2022-11-19T01:04:29.599Z,100994.03
2022-11-19T01:06:58.110Z,101003.38
2022-11-19T01:09:29.701Z,100996.44
2022-11-19T01:11:58.296Z,100991.31
2022-11-19T01:14:27.621Z,100986.13
2022-11-19T01:16:56.446Z,101003.69
2022-11-19T01:19:25.212Z,100993.38
2022-11-19T01:21:54.204Z,100990.03
2022-11-19T01:24:22.841Z,100985.81
2022-11-19T01:26:54.703Z,100991.88
2022-11-19T01:29:23.464Z,100999.72
2022-11-19T01:31:52.271Z,100986.88
2022-11-19T01:34:20.807Z,100983.56
2022-11-19T01:36:49.291Z,100989.84
2022-11-19T01:39:20.204Z,101002.91
2022-11-19T01:41:49.023Z,100986.41
2022-11-19T01:45:00.721Z,100988.22
2022-11-19T01:47:29.398Z,100992.78
2022-11-19T01:49:58.001Z,100991.06
2022-11-19T01:52:27.047Z,100994.59
2022-11-19T01:54:57.168Z,100989.56
2022-11-19T01:57:26.051Z,100986.09
2022-11-19T01:59:56.660Z,100982.56
2022-11-19T02:02:26.613Z,100965.16
2022-11-19T02:04:57.472Z,100973.13
2022-11-19T02:07:29.746Z,100991.31
2022-11-19T02:09:59.480Z,101014.78
2022-11-19T02:12:38.445Z,101013.19
2022-11-19T02:15:21.985Z,101027.22
2022-11-19T02:18:19.489Z,101029.84
2022-11-19T02:21:00.788Z,101009.84
2022-11-19T02:23:55.425Z,100996.97
2022-11-19T02:26:50.318Z,101009.25
2022-11-19T02:29:40.930Z,101009.25
2022-11-19T02:32:16.200Z,101011.94
2022-11-19T02:34:52.431Z,100999.75
2022-11-19T02:37:30.131Z,100990.44
2022-11-19T02:40:07.863Z,101000.97
2022-11-19T02:42:39.963Z,101007.59
2022-11-19T02:45:15.860Z,101011.00
2022-11-19T02:47:48.733Z,101022.19
2022-11-19T02:50:21.503Z,101014.38
2022-11-19T02:52:50.909Z,101001.38
2022-11-19T02:55:22.146Z,101009.25
2022-11-19T02:57:56.132Z,101001.44
2022-11-19T03:00:45.163Z,100998.91
2022-11-19T03:03:35.684Z,101013.63
2022-11-19T03:06:11.087Z,101004.81
2022-11-19T03:08:40.257Z,101004.72
2022-11-19T03:11:18.658Z,100999.50
2022-11-19T03:14:14.113Z,100997.84
2022-11-19T03:16:52.742Z,101001.44
2022-11-19T03:19:39.661Z,101003.38
2022-11-19T03:22:14.239Z,101000.94
2022-11-19T03:24:47.613Z,101001.03
2022-11-19T03:27:22.181Z,101003.75
2022-11-19T03:29:54.676Z,101006.44
2022-11-19T03:32:29.340Z,101005.50
2022-11-19T03:35:03.243Z,101002.03
2022-11-19T03:37:35.175Z,101009.78
2022-11-19T03:40:05.678Z,101011.47
2022-11-19T03:42:35.818Z,101016.50
2022-11-19T03:45:09.934Z,101009.50
2022-11-19T03:47:43.311Z,101016.50
2022-11-19T03:50:19.078Z,101005.34
2022-11-19T03:52:47.527Z,101014.16
2022-11-19T03:55:17.236Z,101023.72
2022-11-19T03:57:46.606Z,101015.91
2022-11-19T04:00:16.265Z,101022.00
2022-11-19T04:02:46.477Z,101022.88
2022-11-19T04:05:15.847Z,101032.41
2022-11-19T04:07:44.457Z,101039.31
2022-11-19T04:10:13.099Z,101039.25
2022-11-19T04:12:41.638Z,101025.34
2022-11-19T04:15:13.100Z,101028.81
2022-11-19T04:17:42.273Z,101028.09
2022-11-19T04:20:13.171Z,101029.91
2022-11-19T04:22:42.344Z,101028.28
2022-11-19T04:25:11.775Z,101026.69
2022-11-19T04:27:40.314Z,101032.75
2022-11-19T04:30:10.565Z,101036.25
2022-11-19T04:32:39.292Z,101035.44
2022-11-19T04:35:07.899Z,101035.50
2022-11-19T04:37:38.284Z,101032.06
2022-11-19T04:40:09.226Z,101031.22
2022-11-19T04:42:37.651Z,101031.22
2022-11-19T04:45:06.817Z,101032.06
2022-11-19T04:47:35.412Z,101038.16
2022-11-19T04:50:04.337Z,101033.84
2022-11-19T04:52:39.244Z,101032.16
2022-11-19T04:55:11.985Z,101027.06
2022-11-19T04:57:40.544Z,101025.34
2022-11-19T05:00:11.546Z,101031.47
2022-11-19T05:02:40.340Z,101041.91
2022-11-19T05:05:10.406Z,101047.19
2022-11-19T05:07:39.257Z,101043.84
2022-11-19T05:10:08.414Z,101037.88
2022-11-19T05:12:38.254Z,101037.94
2022-11-19T05:15:07.937Z,101042.19
2022-11-19T05:17:36.576Z,101042.31
2022-11-19T05:20:05.826Z,101039.06
2022-11-19T05:22:34.419Z,101037.59
2022-11-19T05:25:02.805Z,101034.34
2022-11-19T05:27:34.698Z,101039.69
2022-11-19T05:30:05.471Z,101043.44
2022-11-19T05:32:36.905Z,101044.31
2022-11-19T05:35:05.431Z,101046.28
2022-11-19T05:37:34.095Z,101048.09
2022-11-19T05:40:02.747Z,101046.19
2022-11-19T05:42:31.179Z,101047.84
2022-11-19T05:44:59.619Z,101061.50
2022-11-19T05:47:30.062Z,101066.66
2022-11-19T05:49:58.659Z,101067.44
2022-11-19T05:52:27.186Z,101053.47
2022-11-19T05:54:55.624Z,101059.59
2022-11-19T05:57:24.265Z,101057.84
2022-11-19T05:59:52.713Z,101062.13
2022-11-19T06:02:21.599Z,101050.03
2022-11-19T06:04:51.981Z,101051.81
2022-11-19T06:07:20.851Z,101048.34
2022-11-19T06:09:49.331Z,101040.63
2022-11-19T06:12:19.043Z,101036.50
2022-11-19T06:14:47.867Z,101034.34
2022-11-19T06:17:16.430Z,101030.22
2022-11-19T06:19:45.007Z,101030.97
2022-11-19T06:22:15.183Z,101024.13
2022-11-19T06:24:43.544Z,101032.09
2022-11-19T06:27:12.091Z,101033.81
2022-11-19T06:29:40.677Z,101025.84
2022-11-19T06:32:09.442Z,101028.38
2022-11-19T06:34:37.820Z,101036.94
2022-11-19T06:37:06.392Z,101031.59
2022-11-19T06:39:36.710Z,101040.88
2022-11-19T06:42:19.718Z,101045.00
2022-11-19T06:44:48.121Z,101037.94
2022-11-19T06:47:16.623Z,101031.03
2022-11-19T06:49:45.304Z,101017.25
2022-11-19T06:52:14.144Z,101021.78
2022-11-19T06:54:44.040Z,101014.38
2022-11-19T06:57:12.514Z,101009.56
2022-11-19T06:59:41.040Z,101011.63
2022-11-19T07:02:12.436Z,101016.13
2022-11-19T07:04:41.132Z,101014.63
2022-11-19T07:07:11.327Z,101013.94
2022-11-19T07:09:40.394Z,101012.31
2022-11-19T07:12:11.027Z,101013.25
2022-11-19T07:14:39.962Z,101011.63
2022-11-19T07:17:08.805Z,101004.81
2022-11-19T07:19:37.424Z,101014.38
2022-11-19T07:22:05.972Z,101013.44
2022-11-19T07:24:34.752Z,101016.00
2022-11-19T07:27:03.601Z,101017.75
2022-11-19T07:29:33.821Z,101015.09
2022-11-19T07:32:03.052Z,101016.75
2022-11-19T07:34:31.647Z,101018.53
2022-11-19T07:37:00.512Z,101012.53
2022-11-19T07:39:29.867Z,101014.34
2022-11-19T07:42:15.351Z,101013.47
2022-11-19T07:44:45.220Z,101001.38
2022-11-19T07:47:13.982Z,101002.38
2022-11-19T07:49:42.566Z,101004.97
2022-11-19T07:52:11.330Z,100994.63
2022-11-19T07:54:40.008Z,100991.34
2022-11-19T07:57:08.639Z,100981.78
2022-11-19T07:59:37.188Z,100987.81
2022-11-19T08:02:07.732Z,100979.09
2022-11-19T08:04:36.481Z,100973.81
2022-11-19T08:07:05.120Z,100979.03
2022-11-19T08:09:33.659Z,100972.97
2022-11-19T08:12:02.563Z,100975.38
2022-11-19T08:14:31.008Z,100962.19
2022-11-19T08:17:16.753Z,100968.78
2022-11-19T08:19:46.722Z,100976.34
2022-11-19T08:22:15.538Z,100966.63
2022-11-19T08:24:44.397Z,100972.59
2022-11-19T08:27:13.612Z,100974.09
2022-11-19T08:29:42.120Z,100972.91
2022-11-19T08:32:11.018Z,100970.53
2022-11-19T08:34:39.432Z,100963.41
2022-11-19T08:37:11.576Z,100959.25
2022-11-19T08:39:40.126Z,100959.69
2022-11-19T08:42:26.356Z,100951.25
2022-11-19T08:44:55.149Z,100949.03
2022-11-19T08:47:23.756Z,100954.34
2022-11-19T08:49:52.745Z,100957.03
2022-11-19T08:52:22.729Z,100956.56
2022-11-19T08:54:51.307Z,100949.94
2022-11-19T08:57:20.469Z,100955.44
2022-11-19T08:59:49.085Z,100952.13
2022-11-19T09:02:17.607Z,100953.88
2022-11-19T09:04:47.057Z,100954.69
2022-11-19T09:07:15.756Z,100959.78
2022-11-19T09:09:45.998Z,100959.59
2022-11-19T09:12:14.833Z,100952.47
2022-11-19T09:14:43.252Z,100961.88
2022-11-19T09:17:11.607Z,100960.69
2022-11-19T09:19:40.092Z,100958.63
2022-11-19T09:22:08.620Z,100953.88
2022-11-19T09:24:37.067Z,100954.22
2022-11-19T09:27:06.978Z,100956.19
2022-11-19T09:29:35.813Z,100941.44
2022-11-19T09:32:04.477Z,100933.66
2022-11-19T09:34:35.357Z,100930.19
2022-11-19T09:37:03.873Z,100924.91
2022-11-19T09:39:32.450Z,100921.88
2022-11-19T09:42:16.508Z,100907.44
2022-11-19T09:45:04.917Z,100888.88
2022-11-19T09:47:54.333Z,100871.94
2022-11-19T09:50:26.347Z,100866.78
2022-11-19T09:53:00.751Z,100868.41
2022-11-19T09:55:33.706Z,100869.03
2022-11-19T09:58:07.500Z,100861.56
2022-11-19T10:00:36.054Z,100854.47
2022-11-19T10:03:15.246Z,100847.53
2022-11-19T10:05:56.216Z,100843.63
2022-11-19T10:08:37.995Z,100836.53
2022-11-19T10:11:21.555Z,100830.66
2022-11-19T10:13:59.982Z,100823.28
2022-11-19T10:16:42.614Z,100826.56
2022-11-19T10:19:22.620Z,100829.41
2022-11-19T10:22:02.711Z,100823.38
2022-11-19T10:24:40.737Z,100826.03
2022-11-19T10:27:19.639Z,100829.16
2022-11-19T10:29:55.630Z,100835.41
2022-11-19T10:32:31.986Z,100834.03
2022-11-19T10:35:06.753Z,100829.72
2022-11-19T10:37:40.450Z,100826.97
2022-11-19T10:40:15.826Z,100817.22
2022-11-19T10:42:48.894Z,100814.56
2022-11-19T10:45:21.056Z,100813.13
2022-11-19T10:47:53.567Z,100820.25
2022-11-19T10:50:24.749Z,100812.75
2022-11-19T10:52:57.099Z,100804.44
2022-11-19T10:55:28.877Z,100801.91
2022-11-19T10:58:08.649Z,100804.84
2022-11-19T11:00:42.336Z,100794.59
2022-11-19T11:03:20.348Z,100777.19
2022-11-19T11:05:58.259Z,100769.28
2022-11-19T11:08:27.091Z,100759.56
2022-11-19T11:10:55.624Z,100756.69
2022-11-19T11:13:56.209Z,100751.94
2022-11-19T11:16:33.820Z,100739.09
2022-11-19T11:19:05.174Z,100730.81
2022-11-19T11:21:38.466Z,100717.94
2022-11-19T11:24:08.952Z,100710.59
2022-11-19T11:26:38.363Z,100711.09
2022-11-19T11:29:09.830Z,100710.84
2022-11-19T11:31:42.370Z,100699.25
2022-11-19T11:34:29.651Z,100691.69
2022-11-19T11:37:00.041Z,100677.34
2022-11-19T11:39:31.916Z,100680.56
2022-11-19T11:42:06.582Z,100683.66
2022-11-19T11:44:38.560Z,100683.13
2022-11-19T11:47:15.913Z,100685.28
2022-11-19T11:49:47.074Z,100673.75
2022-11-19T11:52:21.314Z,100664.38
2022-11-19T11:54:58.871Z,100663.72
2022-11-19T11:57:31.321Z,100655.56
2022-11-19T12:00:00.417Z,100657.91
2022-11-19T12:02:33.101Z,100645.25
2022-11-19T12:05:03.959Z,100656.84
2022-11-19T12:08:05.865Z,100640.50
2022-11-19T12:10:45.563Z,100639.72
2022-11-19T12:13:48.462Z,100648.59
2022-11-19T12:16:29.644Z,100638.34
2022-11-19T12:19:11.538Z,100627.22
2022-11-19T12:21:50.474Z,100632.47
2022-11-19T12:24:36.079Z,100613.31
2022-11-19T12:27:16.210Z,100612.66
2022-11-19T12:29:58.173Z,100606.03
2022-11-19T12:32:49.493Z,100603.41
2022-11-19T12:35:36.673Z,100600.47
2022-11-19T12:38:27.619Z,100601.63
2022-11-19T12:41:08.585Z,100597.50
2022-11-19T12:43:55.224Z,100593.94
2022-11-19T12:46:33.274Z,100591.22
2022-11-19T12:49:30.498Z,100580.41
2022-11-19T12:52:06.880Z,100578.81
2022-11-19T12:54:48.964Z,100577.31
2022-11-19T12:57:33.480Z,100570.91
2022-11-19T13:00:15.665Z,100572.06
2022-11-19T13:03:02.613Z,100570.31
2022-11-19T13:05:42.221Z,100571.22
2022-11-19T13:08:20.128Z,100571.13
2022-11-19T13:10:52.386Z,100563.69
2022-11-19T13:13:26.502Z,100556.31
2022-11-19T13:16:01.562Z,100545.09
2022-11-19T13:18:34.128Z,100543.31
2022-11-19T13:21:05.634Z,100534.34
2022-11-19T13:23:40.653Z,100531.41
2022-11-19T13:26:14.733Z,100525.75
2022-11-19T13:28:48.375Z,100521.41
2022-11-19T13:31:30.344Z,100518.41
2022-11-19T13:34:02.714Z,100521.97
2022-11-19T13:36:37.116Z,100520.19
2022-11-19T13:39:16.427Z,100515.97
2022-11-19T13:42:07.889Z,100499.66
2022-11-19T13:44:41.779Z,100504.41
2022-11-19T13:47:19.507Z,100504.72
2022-11-19T13:49:52.158Z,100500.72
2022-11-19T13:52:27.744Z,100497.25
2022-11-19T13:54:59.030Z,100494.94
2022-11-19T13:57:32.542Z,100493.88
2022-11-19T14:00:05.207Z,100491.66
2022-11-19T14:02:55.248Z,100491.84
2022-11-19T14:06:02.651Z,100473.44
2022-11-19T14:08:48.641Z,100471.56
2022-11-19T14:11:33.594Z,100454.50
2022-11-19T14:14:50.203Z,100455.53
2022-11-19T14:17:46.174Z,100453.66
2022-11-19T14:20:52.709Z,100450.72
2022-11-19T14:24:03.138Z,100442.31
2022-11-19T14:27:04.385Z,100441.81
2022-11-19T14:29:56.282Z,100439.16
2022-11-19T14:32:36.794Z,100435.78
2022-11-19T14:35:43.811Z,100435.06
2022-11-19T14:38:33.498Z,100433.59
2022-11-19T14:41:16.094Z,100422.25
2022-11-19T14:44:13.653Z,100429.69
2022-11-19T14:46:45.981Z,100428.72
2022-11-19T14:49:27.838Z,100435.78
2022-11-19T14:51:58.320Z,100433.91
2022-11-19T14:54:39.316Z,100436.84
2022-11-19T14:57:16.952Z,100427.50
2022-11-19T14:59:53.734Z,100425.06
2022-11-19T15:02:27.455Z,100434.13
2022-11-19T15:05:05.033Z,100418.97
2022-11-19T15:07:44.201Z,100418.34
2022-11-19T15:10:35.123Z,100404.78
2022-11-19T15:13:18.820Z,100410.69
2022-11-19T15:15:51.012Z,100416.28
2022-11-19T15:18:41.131Z,100403.44
2022-11-19T15:21:24.547Z,100405.44
2022-11-19T15:24:07.142Z,100404.69
2022-11-19T15:26:46.841Z,100383.06
2022-11-19T15:29:25.877Z,100388.63
2022-11-19T15:32:22.332Z,100385.75
2022-11-19T15:35:19.364Z,100381.84
2022-11-19T15:37:52.278Z,100371.47
2022-11-19T15:40:24.777Z,100370.63
2022-11-19T15:43:03.569Z,100377.97
2022-11-19T15:45:38.945Z,100368.00
2022-11-19T15:48:15.213Z,100370.00
2022-11-19T15:50:44.922Z,100358.13
2022-11-19T15:53:19.916Z,100360.63
2022-11-19T15:55:53.724Z,100360.13
2022-11-19T15:59:13.141Z,100353.19
2022-11-19T16:01:42.992Z,100347.72
2022-11-19T16:04:18.362Z,100347.94
2022-11-19T16:06:52.430Z,100341.19
2022-11-19T16:09:26.161Z,100342.47
2022-11-19T16:12:14.536Z,100334.78
2022-11-19T16:15:00.235Z,100334.72
2022-11-19T16:17:42.988Z,100319.78
2022-11-19T16:20:22.245Z,100316.63
2022-11-19T16:23:00.029Z,100315.25
2022-11-19T16:25:34.589Z,100316.91
2022-11-19T16:28:06.780Z,100300.88
2022-11-19T16:30:46.488Z,100298.13
2022-11-19T16:33:18.616Z,100300.94
2022-11-19T16:35:52.944Z,100296.97
2022-11-19T16:38:26.890Z,100300.00
2022-11-19T16:41:13.858Z,100289.81
2022-11-19T16:43:45.337Z,100298.31
2022-11-19T16:46:17.199Z,100289.00
2022-11-19T16:48:58.080Z,100281.75
2022-11-19T16:51:35.359Z,100282.72
2022-11-19T16:54:05.292Z,100285.97
2022-11-19T16:56:44.588Z,100287.00
2022-11-19T16:59:21.996Z,100293.59
2022-11-19T17:01:56.501Z,100297.06
2022-11-19T17:04:29.072Z,100302.53
2022-11-19T17:07:00.860Z,100301.78
2022-11-19T17:09:41.732Z,100308.28
2022-11-19T17:12:27.345Z,100307.63
2022-11-19T17:15:01.184Z,100319.19
2022-11-19T17:17:40.610Z,100319.59
2022-11-19T17:21:01.091Z,100320.44
2022-11-19T17:23:33.391Z,100301.00
2022-11-19T17:26:04.869Z,100309.22
2022-11-19T17:28:41.050Z,100298.94
2022-11-19T17:31:17.832Z,100304.19
2022-11-19T17:33:52.613Z,100309.03
2022-11-19T17:36:22.450Z,100308.31
2022-11-19T17:38:52.905Z,100314.19
2022-11-19T17:41:38.557Z,100308.59
2022-11-19T17:44:31.028Z,100305.34
2022-11-19T17:46:59.498Z,100302.94
2022-11-19T17:49:27.821Z,100296.53
2022-11-19T17:51:56.885Z,100286.78
2022-11-19T17:54:26.876Z,100279.63
2022-11-19T17:56:55.354Z,100282.25
2022-11-19T17:59:23.753Z,100279.22
2022-11-19T18:01:52.715Z,100277.22
2022-11-19T18:04:21.325Z,100282.38
2022-11-19T18:06:50.108Z,100276.38
2022-11-19T18:09:19.583Z,100272.19
2022-11-19T18:11:49.709Z,100266.41
2022-11-19T18:14:18.221Z,100265.38
2022-11-19T18:16:46.686Z,100264.53
2022-11-19T18:19:24.364Z,100252.56
2022-11-19T18:21:53.546Z,100245.19
2022-11-19T18:24:22.584Z,100241.94
2022-11-19T18:26:52.498Z,100246.53
2022-11-19T18:29:21.428Z,100246.13
2022-11-19T18:31:53.464Z,100237.41
2022-11-19T18:34:25.648Z,100243.09
2022-11-19T18:36:54.603Z,100242.38
2022-11-19T18:39:23.920Z,100243.19
2022-11-19T18:41:54.260Z,100229.31
2022-11-19T18:44:33.942Z,100234.50
2022-11-19T18:47:04.018Z,100231.31
2022-11-19T18:49:33.773Z,100228.16
2022-11-19T18:52:02.596Z,100232.91
2022-11-19T18:54:30.976Z,100222.84
2022-11-19T18:57:01.554Z,100222.91
2022-11-19T18:59:30.454Z,100225.47
2022-11-19T19:01:59.118Z,100216.00
2022-11-19T19:04:27.825Z,100222.31
2022-11-19T19:06:56.481Z,100223.47
2022-11-19T19:09:25.721Z,100221.56
2022-11-19T19:12:13.831Z,100216.50
2022-11-19T19:14:45.337Z,100210.09
2022-11-19T19:17:14.805Z,100213.47
2022-11-19T19:19:43.468Z,100206.63
2022-11-19T19:22:12.090Z,100199.16
2022-11-19T19:24:40.963Z,100203.75
2022-11-19T19:27:09.598Z,100202.41
2022-11-19T19:29:39.798Z,100198.09
2022-11-19T19:32:10.166Z,100199.88
2022-11-19T19:34:38.580Z,100189.06
2022-11-19T19:37:07.525Z,100185.19
2022-11-19T19:39:35.981Z,100185.78
2022-11-19T19:42:04.466Z,100175.19
2022-11-19T19:44:32.777Z,100161.03
2022-11-19T19:47:01.139Z,100163.00
2022-11-19T19:49:33.478Z,100166.16
2022-11-19T19:52:06.216Z,100174.59
2022-11-19T19:54:34.717Z,100165.97
2022-11-19T19:57:03.225Z,100170.94
2022-11-19T19:59:31.753Z,100164.41
2022-11-19T20:02:00.239Z,100162.72
2022-11-19T20:04:30.600Z,100160.41
2022-11-19T20:06:59.081Z,100167.25
2022-11-19T20:09:27.752Z,100169.75
2022-11-19T20:11:56.556Z,100166.19
2022-11-19T20:14:25.063Z,100182.69
2022-11-19T20:16:53.938Z,100177.03
2022-11-19T20:19:22.822Z,100172.63
2022-11-19T20:21:54.726Z,100167.97
2022-11-19T20:24:23.173Z,100176.13
2022-11-19T20:26:52.130Z,100170.06
2022-11-19T20:29:22.274Z,100174.50
2022-11-19T20:31:52.103Z,100167.16
2022-11-19T20:34:21.076Z,100167.53
2022-11-19T20:36:49.928Z,100169.00
2022-11-19T20:39:19.979Z,100168.88
2022-11-19T20:42:06.818Z,100171.00
2022-11-19T20:44:35.154Z,100171.13
2022-11-19T20:47:05.250Z,100171.84
2022-11-19T20:49:36.035Z,100176.88
2022-11-19T20:52:05.599Z,100181.31
2022-11-19T20:54:36.139Z,100179.28
2022-11-19T20:57:04.959Z,100176.06
2022-11-19T20:59:33.865Z,100164.34
2022-11-19T21:02:02.565Z,100162.28
2022-11-19T21:04:36.804Z,100157.03
2022-11-19T21:07:06.875Z,100158.97
2022-11-19T21:09:37.707Z,100154.19
2022-11-19T21:12:06.480Z,100155.00
2022-11-19T21:14:35.086Z,100160.94
2022-11-19T21:17:03.370Z,100169.38
2022-11-19T21:19:31.772Z,100165.53
2022-11-19T21:22:00.337Z,100162.94
2022-11-19T21:24:28.755Z,100159.81
2022-11-19T21:26:59.463Z,100169.38
2022-11-19T21:29:28.417Z,100166.25
2022-11-19T21:31:56.836Z,100170.16
2022-11-19T21:34:25.313Z,100175.72
2022-11-19T21:36:53.873Z,100176.91
2022-11-19T21:39:22.598Z,100169.00
2022-11-19T21:41:51.471Z,100164.16
2022-11-19T21:44:22.147Z,100169.06
2022-11-19T21:46:50.694Z,100170.75
2022-11-19T21:49:19.735Z,100170.53
2022-11-19T21:51:49.256Z,100180.09
2022-11-19T21:54:17.962Z,100180.72
2022-11-19T21:56:47.450Z,100184.69
2022-11-19T21:59:16.654Z,100182.69
2022-11-19T22:01:51.784Z,100178.88
2022-11-19T22:04:22.905Z,100175.06
2022-11-19T22:06:51.413Z,100186.16
2022-11-19T22:09:20.119Z,100177.09
2022-11-19T22:11:48.725Z,100167.31
2022-11-19T22:14:17.299Z,100157.03
2022-11-19T22:16:47.970Z,100153.00
2022-11-19T22:19:16.495Z,100157.84
2022-11-19T22:21:46.941Z,100158.94
2022-11-19T22:24:15.409Z,100162.00
2022-11-19T22:26:44.080Z,100157.47
2022-11-19T22:29:12.699Z,100163.16
2022-11-19T22:31:41.104Z,100159.81
2022-11-19T22:34:13.439Z,100160.28
2022-11-19T22:36:43.160Z,100164.91
2022-11-19T22:39:12.963Z,100169.44
2022-11-19T22:41:41.677Z,100167.97
2022-11-19T22:44:10.334Z,100165.25
2022-11-19T22:46:39.123Z,100164.16
2022-11-19T22:49:08.010Z,100165.25
2022-11-19T22:51:38.258Z,100159.38
2022-11-19T22:54:08.967Z,100165.13
2022-11-19T22:56:41.334Z,100167.75
2022-11-19T22:59:09.725Z,100167.13
2022-11-19T23:01:38.252Z,100172.06
2022-11-19T23:04:08.358Z,100160.63
2022-11-19T23:06:38.907Z,100163.34
2022-11-19T23:09:08.444Z,100164.91
2022-11-19T23:11:54.716Z,100154.56
2022-11-19T23:14:23.407Z,100145.56
2022-11-19T23:16:51.888Z,100152.81
2022-11-19T23:19:20.708Z,100155.34
2022-11-19T23:21:51.102Z,100162.63
2022-11-19T23:24:19.860Z,100156.75
2022-11-19T23:26:48.316Z,100158.53
2022-11-19T23:29:16.631Z,100155.28
2022-11-19T23:31:45.246Z,100152.88
2022-11-19T23:34:13.534Z,100158.69
2022-11-19T23:36:42.921Z,100150.50
2022-11-19T23:39:16.684Z,100157.56
2022-11-19T23:41:46.817Z,100145.59
2022-11-19T23:44:15.170Z,100144.13
2022-11-19T23:46:43.556Z,100146.94
2022-11-19T23:49:13.025Z,100139.69
2022-11-19T23:51:41.748Z,100138.88
2022-11-19T23:54:12.736Z,100148.75
2022-11-19T23:56:47.823Z,100147.41
2022-11-19T23:59:19.486Z,100154.75
